Time;durP1;ratioP1;P1;durP2;ratioP2;P2;SDS_P1;SDS_P2;PMS_P1;PMS_P2;Temp;Humidity;BMP_temperature;BMP_pressure;BME280_temperature;BME280_humidity;BME280_pressure;Samples;Min_cycle;Max_cycle;Signal;HPM_P1;HPM_P2
2022/05/18 00:07:38;;;;;;;5.20;3.30;;;17.40;99.90;;;;;;4772757;29;20116;-76
2022/05/18 00:16:53;;;;;;;5.38;3.88;;;17.50;99.90;;;;;;4749852;30;20035;-76
2022/05/18 00:19:21;;;;;;;4.72;3.58;;;17.50;99.90;;;;;;4809502;29;20038;-76
2022/05/18 00:57:44;;;;;;;7.43;3.97;;;17.40;99.90;;;;;;4783935;29;20518;-77
2022/05/18 01:01:27;;;;;;;6.88;3.60;;;17.40;99.90;;;;;;4707815;29;20215;-76
2022/05/18 01:04:29;;;;;;;5.43;3.70;;;17.30;99.90;;;;;;4671806;30;20045;-76
2022/05/18 01:14:52;;;;;;;4.85;3.30;;;17.40;99.90;;;;;;4696742;30;20131;-76
2022/05/18 01:32:33;;;;;;;6.53;4.78;;;17.40;99.90;;;;;;4785941;29;20051;-76
2022/05/18 01:35:10;;;;;;;7.03;4.95;;;17.40;99.90;;;;;;4865316;29;20055;-76
2022/05/18 01:38:06;;;;;;;6.50;4.93;;;17.40;99.90;;;;;;4890451;29;20032;-76
2022/05/18 01:47:17;;;;;;;7.18;3.92;;;17.40;99.90;;;;;;4865890;29;20585;-76
2022/05/18 01:49:44;;;;;;;5.88;3.83;;;17.40;99.90;;;;;;4880890;29;20036;-76
2022/05/18 01:52:10;;;;;;;5.95;4.05;;;17.40;99.90;;;;;;4984125;28;20449;-76
2022/05/18 01:54:41;;;;;;;6.75;4.20;;;17.40;99.90;;;;;;4989985;28;20043;-77
2022/05/18 01:57:06;;;;;;;9.20;3.60;;;17.40;99.90;;;;;;4995474;28;20041;-76
2022/05/18 01:59:33;;;;;;;6.03;4.28;;;17.40;99.90;;;;;;4991717;28;20441;-76
2022/05/18 02:01:58;;;;;;;5.63;4.75;;;17.30;99.90;;;;;;4992015;28;20057;-76
2022/05/18 02:04:24;;;;;;;6.57;4.63;;;17.30;99.90;;;;;;4997797;28;20537;-76
2022/05/18 02:06:49;;;;;;;9.13;5.07;;;17.20;99.90;;;;;;4993182;28;20032;-77
2022/05/18 02:09:16;;;;;;;6.63;4.90;;;17.30;99.90;;;;;;4993982;28;20105;-76
2022/05/18 02:11:42;;;;;;;6.72;4.07;;;17.20;99.90;;;;;;4995528;28;20714;-76
2022/05/18 02:14:09;;;;;;;5.22;3.70;;;17.20;99.90;;;;;;4997780;28;20038;-76
2022/05/18 02:16:36;;;;;;;7.80;3.65;;;17.00;99.90;;;;;;4994649;28;20506;-76
2022/05/18 02:19:02;;;;;;;6.65;4.22;;;17.00;99.90;;;;;;4993715;28;20038;-76
2022/05/18 02:21:27;;;;;;;8.88;4.50;;;17.10;99.90;;;;;;4991064;28;20038;-77
2022/05/18 02:23:53;;;;;;;9.65;4.20;;;17.10;99.90;;;;;;4994174;28;20064;-76
2022/05/18 02:26:19;;;;;;;6.85;4.13;;;17.10;99.90;;;;;;4993050;28;20073;-76
2022/05/18 02:28:45;;;;;;;5.72;3.90;;;17.10;99.90;;;;;;4994476;28;20045;-76
2022/05/18 02:31:12;;;;;;;4.47;3.20;;;17.00;99.90;;;;;;5011439;28;20041;-76
2022/05/18 02:33:38;;;;;;;6.15;3.55;;;17.00;99.90;;;;;;5010398;28;20048;-77
2022/05/18 02:36:06;;;;;;;4.70;3.88;;;17.00;99.90;;;;;;5011299;28;20029;-77
2022/05/18 02:38:32;;;;;;;6.22;3.78;;;17.10;99.90;;;;;;5009415;28;20132;-77
2022/05/18 02:40:58;;;;;;;6.18;3.72;;;17.10;99.90;;;;;;5011684;28;20099;-77
2022/05/18 02:43:25;;;;;;;4.38;3.85;;;17.10;99.90;;;;;;5011432;28;20732;-77
2022/05/18 02:46:02;;;;;;;5.97;3.92;;;17.10;99.90;;;;;;5010522;28;20428;-77
2022/05/18 02:48:27;;;;;;;4.78;3.70;;;17.10;99.90;;;;;;5009406;28;20724;-77
2022/05/18 02:50:53;;;;;;;5.03;3.85;;;17.10;99.90;;;;;;5002369;28;20022;-76
2022/05/18 02:53:18;;;;;;;5.75;3.85;;;17.10;99.90;;;;;;5005295;28;21185;-77
2022/05/18 02:58:28;;;;;;;4.30;3.53;;;17.00;99.90;;;;;;5008436;28;20064;-77
2022/05/18 03:00:54;;;;;;;5.43;3.90;;;17.00;99.90;;;;;;5013889;28;20116;-77
2022/05/18 03:03:19;;;;;;;5.22;3.97;;;16.90;99.90;;;;;;5006054;28;20320;-77
2022/05/18 03:05:45;;;;;;;7.07;4.05;;;17.00;99.90;;;;;;5011786;28;20045;-77
2022/05/18 03:08:10;;;;;;;4.95;3.90;;;17.00;99.90;;;;;;5010664;28;20049;-76
2022/05/18 03:10:36;;;;;;;6.07;4.70;;;;;;;;;;5007353;28;20389;-77
2022/05/18 03:13:02;;;;;;;5.78;4.88;;;;;;;;;;5013086;28;20135;-77
2022/05/18 03:15:28;;;;;;;6.60;5.10;;;;;;;;;;5012904;28;20111;-77
2022/05/18 03:17:54;;;;;;;6.80;5.45;;;;;;;;;;5012415;28;20143;-77
2022/05/18 03:25:49;;;;;;;11.40;6.07;;;;;;;;;;5007902;28;20037;-77
2022/05/18 03:28:15;;;;;;;8.55;6.20;;;;;;;;;;5006735;28;20053;-77
2022/05/18 03:30:41;;;;;;;9.27;5.82;;;;;;;;;;5006388;28;20037;-77
2022/05/18 03:33:07;;;;;;;8.23;5.97;;;;;;;;;;5004246;28;20026;-77
2022/05/18 03:35:33;;;;;;;6.78;5.60;;;;;;;;;;5014481;28;20029;-78
2022/05/18 03:38:00;;;;;;;7.57;5.90;;;;;;;;;;5010503;28;20714;-77
2022/05/18 03:40:27;;;;;;;6.13;5.00;;;;;;;;;;5005635;28;20036;-77
2022/05/18 03:42:53;;;;;;;6.70;6.00;;;;;;;;;;5007281;28;20049;-77
2022/05/18 03:45:18;;;;;;;8.85;6.22;;;;;;;;;;5003705;28;20030;-77
2022/05/18 03:47:44;;;;;;;9.15;6.30;;;;;;;;;;5007827;28;20033;-77
2022/05/18 03:50:12;;;;;;;9.63;5.63;;;;;;;;;;5010697;28;20041;-78
2022/05/18 03:52:38;;;;;;;7.70;5.72;;;;;;;;;;5002223;28;20033;-78
2022/05/18 03:55:05;;;;;;;5.85;5.13;;;;;;;;;;5006156;28;20035;-78
2022/05/18 03:57:31;;;;;;;8.00;5.68;;;;;;;;;;5015392;28;20040;-78
2022/05/18 03:59:57;;;;;;;8.75;6.22;;;;;;;;;;5011864;28;20025;-78
2022/05/18 04:02:22;;;;;;;7.18;6.10;;;;;;;;;;5012913;28;20504;-77
2022/05/18 04:04:49;;;;;;;9.40;6.40;;;;;;;;;;4998436;28;20042;-77
2022/05/18 04:07:15;;;;;;;7.57;6.47;;;;;;;;;;5001699;28;21430;-77
2022/05/18 04:09:41;;;;;;;7.93;5.40;;;;;;;;;;4986307;28;20041;-78
2022/05/18 04:12:08;;;;;;;5.63;4.33;;;;;;;;;;4322386;28;10022762;-76
2022/05/18 04:14:34;;;;;;;6.82;5.32;;;;;;;;;;5018571;28;20042;-77
2022/05/18 04:17:00;;;;;;;7.65;5.88;;;;;;;;;;5025456;28;20056;-77
2022/05/18 04:19:26;;;;;;;7.60;5.55;;;;;;;;;;5025879;28;20631;-77
2022/05/18 04:21:52;;;;;;;9.88;5.22;;;;;;;;;;5027364;28;20146;-77
2022/05/18 04:24:18;;;;;;;5.88;4.68;;;;;;;;;;5028930;28;22176;-77
2022/05/18 04:26:44;;;;;;;5.30;4.80;;;;;;;;;;5028320;28;20044;-74
2022/05/18 04:29:11;;;;;;;6.63;5.15;;;;;;;;;;5023905;28;20382;-74
2022/05/18 04:31:37;;;;;;;7.93;4.72;;;;;;;;;;5022696;28;20064;-74
2022/05/18 04:34:03;;;;;;;6.45;4.85;;;;;;;;;;5025075;28;20033;-74
2022/05/18 04:36:29;;;;;;;8.70;5.10;;;;;;;;;;5022351;28;20049;-75
2022/05/18 04:38:55;;;;;;;5.65;5.03;;;;;;;;;;5021501;28;20034;-75
2022/05/18 04:41:22;;;;;;;8.45;5.45;;;;;;;;;;5024597;28;20124;-75
2022/05/18 04:43:48;;;;;;;6.03;5.20;;;;;;;;;;5028234;28;20132;-75
2022/05/18 04:46:15;;;;;;;5.65;5.07;;;;;;;;;;5013991;28;20499;-75
2022/05/18 04:48:42;;;;;;;6.22;5.43;;;;;;;;;;5013093;28;20050;-76
2022/05/18 04:51:08;;;;;;;11.50;5.38;;;17.10;99.90;;;;;;5010279;28;20043;-76
2022/05/18 04:53:35;;;;;;;7.53;5.82;;;17.20;99.90;;;;;;5013528;28;20700;-76
2022/05/18 04:56:03;;;;;;;6.13;5.20;;;17.30;99.90;;;;;;4996507;28;20460;-78
2022/05/18 04:58:41;;;;;;;9.70;4.97;;;17.20;99.90;;;;;;5012082;28;20678;-78
2022/05/18 05:01:08;;;;;;;6.85;5.30;;;17.30;99.90;;;;;;5011406;28;20810;-77
2022/05/18 05:03:37;;;;;;;8.20;5.10;;;17.40;99.90;;;;;;5010254;28;20084;-77
2022/05/18 05:06:04;;;;;;;6.85;5.25;;;17.40;99.90;;;;;;5014732;28;20205;-78
2022/05/18 05:08:34;;;;;;;10.98;5.93;;;17.60;99.90;;;;;;5015308;28;20531;-78
2022/05/18 05:11:00;;;;;;;11.35;6.00;;;17.80;99.90;;;;;;5013029;28;20084;-78
2022/05/18 05:14:07;;;;;;;10.50;5.78;;;17.90;99.90;;;;;;5010834;28;20117;-78
2022/05/18 05:16:33;;;;;;;10.30;5.97;;;18.10;99.90;;;;;;4954260;28;20054;-77
2022/05/18 05:18:59;;;;;;;10.73;5.68;;;18.20;99.90;;;;;;5013855;28;20022;-77
2022/05/18 05:21:24;;;;;;;8.20;5.50;;;18.30;99.90;;;;;;5019469;28;20145;-77
2022/05/18 05:23:50;;;;;;;9.30;5.10;;;18.30;99.90;;;;;;5013221;28;20044;-79
2022/05/18 05:26:16;;;;;;;5.70;5.07;;;18.30;99.90;;;;;;5015266;28;20037;-78
2022/05/18 05:28:42;;;;;;;7.28;5.30;;;18.30;99.90;;;;;;5013815;28;20548;-77
2022/05/18 05:31:10;;;;;;;6.13;4.88;;;18.30;99.90;;;;;;5016826;28;20036;-77
2022/05/18 05:33:38;;;;;;;5.68;4.70;;;18.30;99.90;;;;;;5011174;28;20034;-77
2022/05/18 05:36:05;;;;;;;8.90;5.45;;;;;;;;;;5015249;28;20637;-78
2022/05/18 05:38:31;;;;;;;6.57;5.43;;;;;;;;;;5015256;28;20072;-78
2022/05/18 05:40:59;;;;;;;5.93;5.20;;;;;;;;;;5016314;28;20033;-78
2022/05/18 05:43:26;;;;;;;7.43;5.10;;;;;;;;;;5013037;28;20037;-78
2022/05/18 05:46:00;;;;;;;6.13;4.50;;;;;;;;;;5016824;28;20025;-78
2022/05/18 05:48:27;;;;;;;7.63;5.22;;;;;;;;;;5018012;28;20033;-80
2022/05/18 05:50:54;;;;;;;5.97;4.65;;;;;;;;;;5015936;28;20403;-78
2022/05/18 05:53:20;;;;;;;6.95;4.60;;;;;;;;;;5019912;28;20111;-78
2022/05/18 05:55:46;;;;;;;6.60;4.80;;;;;;;;;;5020190;28;20042;-79
2022/05/18 05:58:12;;;;;;;7.53;5.13;;;;;;;;;;5015109;28;20025;-78
2022/05/18 06:00:38;;;;;;;5.63;4.75;;;;;;;;;;5013216;28;20029;-78
2022/05/18 06:03:04;;;;;;;7.35;5.45;;;;;;;;;;5013193;28;20041;-78
2022/05/18 06:05:30;;;;;;;8.90;5.40;;;;;;;;;;5014645;28;20662;-78
2022/05/18 06:07:57;;;;;;;6.07;5.00;;;;;;;;;;5019822;28;20060;-78
2022/05/18 06:10:23;;;;;;;10.48;5.47;;;;;;;;;;5017369;28;20112;-78
2022/05/18 06:12:49;;;;;;;6.90;5.35;;;;;;;;;;5019690;28;20520;-78
2022/05/18 06:15:16;;;;;;;7.47;5.32;;;;;;;;;;5019424;28;20029;-78
2022/05/18 06:17:45;;;;;;;10.70;5.00;;;;;;;;;;5018777;28;20021;-78
2022/05/18 06:20:12;;;;;;;9.48;5.15;;;;;;;;;;5014320;28;20120;-78
2022/05/18 06:22:37;;;;;;;7.35;5.00;;;20.10;99.90;;;;;;5017659;28;20440;-79
2022/05/18 06:25:04;;;;;;;6.10;4.50;;;20.30;99.90;;;;;;5014848;28;20029;-80
2022/05/18 06:27:30;;;;;;;7.88;4.70;;;20.30;99.90;;;;;;5017576;28;20449;-79
2022/05/18 06:29:55;;;;;;;9.57;4.30;;;20.30;99.90;;;;;;5002534;28;20069;-79
2022/05/18 06:32:21;;;;;;;8.13;4.60;;;20.30;99.90;;;;;;5002448;28;20109;-79
2022/05/18 06:34:48;;;;;;;6.78;3.95;;;20.20;99.90;;;;;;4999490;28;20041;-79
2022/05/18 06:37:14;;;;;;;8.15;4.47;;;20.10;99.90;;;;;;5003561;28;20113;-78
2022/05/18 06:39:40;;;;;;;7.88;4.03;;;20.00;99.90;;;;;;5000080;28;20695;-78
2022/05/18 06:42:06;;;;;;;6.65;4.40;;;20.00;99.90;;;;;;5002455;28;20040;-78
2022/05/18 06:44:32;;;;;;;5.95;4.28;;;20.00;99.90;;;;;;5003376;28;20041;-78
2022/05/18 06:47:01;;;;;;;6.57;4.07;;;19.90;99.90;;;;;;4994082;28;20405;-78
2022/05/18 06:49:28;;;;;;;5.85;4.00;;;19.80;99.90;;;;;;5003008;28;20112;-79
2022/05/18 06:51:56;;;;;;;6.88;4.40;;;19.80;99.90;;;;;;5004704;28;20053;-79
2022/05/18 06:54:23;;;;;;;7.43;4.03;;;19.80;99.90;;;;;;4998580;28;20034;-79
2022/05/18 06:56:49;;;;;;;9.65;4.53;;;19.90;99.90;;;;;;5002872;28;20430;-79
2022/05/18 07:02:49;;;;;;;9.48;4.10;;;20.00;99.90;;;;;;4990395;28;20077;-80
2022/05/18 07:05:15;;;;;;;5.25;3.80;;;20.10;99.90;;;;;;4996906;28;20145;-78
2022/05/18 07:07:41;;;;;;;8.60;4.35;;;20.20;99.90;;;;;;4993756;28;20033;-78
2022/05/18 07:10:20;;;;;;;6.22;4.28;;;20.20;99.90;;;;;;4995857;28;20144;-78
2022/05/18 07:12:46;;;;;;;8.57;4.22;;;20.40;99.90;;;;;;4974404;28;22632;-78
2022/05/18 07:15:12;;;;;;;9.40;4.78;;;20.50;99.90;;;;;;4998004;28;20036;-77
2022/05/18 07:17:38;;;;;;;8.40;4.60;;;20.60;99.90;;;;;;4998667;28;20026;-77
2022/05/18 07:20:05;;;;;;;10.13;4.40;;;20.70;99.90;;;;;;5001685;28;20212;-77
2022/05/18 07:22:30;;;;;;;7.97;4.53;;;20.80;99.90;;;;;;4999027;28;20478;-77
2022/05/18 07:24:57;;;;;;;6.13;4.45;;;20.90;99.90;;;;;;4996201;28;20037;-77
2022/05/18 07:27:23;;;;;;;6.43;4.57;;;21.00;99.90;;;;;;5001836;28;20037;-78
2022/05/18 07:29:49;;;;;;;9.98;4.53;;;21.00;99.90;;;;;;5014131;28;20087;-77
2022/05/18 07:32:16;;;;;;;6.15;4.40;;;20.90;99.90;;;;;;5015261;28;20037;-77
2022/05/18 07:34:45;;;;;;;5.28;4.40;;;21.00;99.90;;;;;;5017662;28;20354;-77
2022/05/18 07:37:12;;;;;;;10.57;5.10;;;20.90;99.90;;;;;;5016469;28;20036;-77
2022/05/18 07:39:38;;;;;;;8.68;4.40;;;20.90;99.90;;;;;;5028185;28;20033;-77
2022/05/18 07:42:05;;;;;;;7.43;4.00;;;20.90;99.90;;;;;;5033860;28;20140;-77
2022/05/18 07:44:32;;;;;;;9.68;4.75;;;20.90;99.90;;;;;;5037150;28;20107;-78
2022/05/18 07:46:58;;;;;;;7.82;4.50;;;20.90;99.90;;;;;;5034156;28;20038;-79
2022/05/18 07:49:24;;;;;;;10.48;4.47;;;21.00;99.90;;;;;;5029815;28;20048;-77
2022/05/18 07:51:50;;;;;;;7.45;4.50;;;21.20;99.90;;;;;;5030438;28;20029;-78
2022/05/18 07:54:17;;;;;;;9.60;4.68;;;21.20;99.90;;;;;;5031140;28;20029;-77
2022/05/18 07:56:43;;;;;;;7.25;3.92;;;21.30;99.90;;;;;;5031677;28;20075;-78
2022/05/18 07:59:11;;;;;;;9.45;4.20;;;21.40;99.90;;;;;;5034036;28;20025;-78
2022/05/18 08:01:39;;;;;;;10.18;5.05;;;21.60;99.90;;;;;;5029549;28;20033;-78
2022/05/18 08:04:05;;;;;;;7.65;4.15;;;21.60;99.90;;;;;;5033053;28;20024;-78
2022/05/18 08:06:33;;;;;;;11.93;4.70;;;22.60;99.90;;;;;;5031184;28;20040;-78
2022/05/18 08:08:59;;;;;;;8.48;3.90;;;22.70;99.90;;;;;;5034095;28;20061;-76
2022/05/18 08:16:54;;;;;;;8.27;3.72;;;23.80;99.90;;;;;;5031142;28;20730;-77
2022/05/18 08:19:19;;;;;;;8.77;3.30;;;23.50;99.90;;;;;;5031074;28;20029;-76
2022/05/18 08:21:47;;;;;;;8.30;4.47;;;23.50;99.90;;;;;;5033894;28;20543;-77
2022/05/18 08:24:13;;;;;;;9.73;3.97;;;23.60;99.90;;;;;;5032477;28;20248;-77
2022/05/18 08:26:41;;;;;;;10.63;4.30;;;23.50;99.90;;;;;;5036073;28;20086;-77
2022/05/18 08:29:07;;;;;;;8.32;4.07;;;23.40;99.90;;;;;;5032953;28;20501;-77
2022/05/18 08:31:33;;;;;;;6.22;3.72;;;23.30;99.90;;;;;;5035464;28;20099;-77
2022/05/18 08:33:59;;;;;;;6.97;3.53;;;23.20;99.90;;;;;;5033265;28;20025;-77
2022/05/18 08:36:26;;;;;;;10.10;3.88;;;23.00;99.90;;;;;;5037428;28;20029;-77
2022/05/18 08:38:53;;;;;;;9.10;4.30;;;23.00;99.90;;;;;;5034288;28;20014;-77
2022/05/18 08:41:23;;;;;;;7.35;4.03;;;23.20;99.90;;;;;;5040268;28;20071;-77
2022/05/18 08:43:53;;;;;;;7.10;4.28;;;23.40;99.90;;;;;;5034055;28;20040;-77
2022/05/18 08:46:50;;;;;;;7.68;3.38;;;23.50;99.90;;;;;;5031502;28;20641;-77
2022/05/18 08:49:57;;;;;;;8.77;3.50;;;23.50;99.90;;;;;;5026635;28;20400;-77
2022/05/18 08:52:50;;;;;;;9.77;3.22;;;23.70;99.90;;;;;;5036307;28;20082;-77
2022/05/18 08:55:41;;;;;;;9.10;3.40;;;23.70;99.90;;;;;;5034008;28;20128;-77
2022/05/18 08:58:22;;;;;;;8.85;3.40;;;23.90;99.90;;;;;;5036590;28;20037;-77
2022/05/18 09:00:55;;;;;;;9.70;3.20;;;23.90;99.90;;;;;;5035879;28;20032;-77
2022/05/18 09:03:30;;;;;;;7.82;2.92;;;23.90;99.90;;;;;;5035938;28;20033;-77
2022/05/18 09:06:11;;;;;;;8.27;3.10;;;24.00;99.90;;;;;;5033559;28;20029;-77
2022/05/18 09:08:41;;;;;;;5.80;2.40;;;24.20;99.90;;;;;;5037361;28;20033;-77
2022/05/18 09:11:13;;;;;;;5.43;2.55;;;24.30;99.90;;;;;;5028518;28;20159;-77
2022/05/18 09:13:39;;;;;;;4.07;2.40;;;24.40;99.90;;;;;;5031232;28;20559;-77
2022/05/18 09:16:10;;;;;;;3.88;2.25;;;24.70;99.90;;;;;;5033160;28;20025;-78
2022/05/18 09:19:07;;;;;;;3.40;2.40;;;24.90;99.90;;;;;;5032008;28;20547;-77
2022/05/18 09:21:37;;;;;;;4.00;2.13;;;25.00;99.90;;;;;;5028026;28;20088;-77
2022/05/18 09:24:38;;;;;;;5.55;2.55;;;25.20;99.90;;;;;;5035176;28;20045;-77
2022/05/18 09:27:12;;;;;;;5.32;2.40;;;25.40;99.90;;;;;;5030516;28;20037;-77
2022/05/18 09:30:02;;;;;;;4.10;2.38;;;25.40;99.90;;;;;;5008808;28;20065;-77
2022/05/18 09:32:39;;;;;;;8.15;2.25;;;25.50;99.90;;;;;;5007250;28;20053;-77
2022/05/18 09:35:40;;;;;;;8.65;2.45;;;25.50;99.90;;;;;;5009181;28;20460;-77
2022/05/18 09:38:23;;;;;;;6.18;2.80;;;25.60;99.90;;;;;;4979752;28;20042;-77
2022/05/18 09:40:50;;;;;;;7.75;2.40;;;25.60;99.90;;;;;;5015212;28;20115;-77
2022/05/18 09:43:46;;;;;;;5.18;2.85;;;25.70;99.90;;;;;;5013693;28;20436;-77
2022/05/18 09:46:13;;;;;;;5.28;2.60;;;25.70;99.90;;;;;;4948126;28;20071;-77
2022/05/18 09:48:57;;;;;;;7.18;2.90;;;25.70;99.90;;;;;;5009762;28;20021;-77
2022/05/18 09:51:23;;;;;;;;;;;25.70;99.90;;;;;;5005431;28;20033;-77
2022/05/18 09:53:49;;;;;;;7.85;2.60;;;25.80;99.90;;;;;;5010777;28;19948;-77
2022/05/18 09:56:34;;;;;;;8.52;2.78;;;25.90;99.90;;;;;;5007837;28;20148;-77
2022/05/18 09:59:06;;;;;;;5.28;2.30;;;26.00;99.90;;;;;;5009793;28;20397;-77
2022/05/18 10:07:32;;;;;;;6.43;2.35;;;26.00;98.10;;;;;;5006795;28;20045;-77
2022/05/18 10:10:22;;;;;;;4.53;2.50;;;26.00;98.70;;;;;;5011367;28;20064;-76
2022/05/18 10:13:05;;;;;;;4.18;2.30;;;26.10;98.40;;;;;;5016295;28;20788;-77
2022/05/18 10:15:34;;;;;;;4.45;2.10;;;26.10;98.10;;;;;;5016500;28;20167;-77
2022/05/18 10:18:09;;;;;;;5.20;2.33;;;26.20;97.00;;;;;;5014610;28;20053;-77
2022/05/18 10:20:36;;;;;;;4.50;2.38;;;26.20;97.10;;;;;;5014215;28;20128;-77
2022/05/18 10:23:02;;;;;;;3.72;2.17;;;26.20;97.50;;;;;;5015210;28;20033;-77
2022/05/18 10:25:47;;;;;;;4.70;2.58;;;26.20;97.70;;;;;;5011664;28;20037;-77
2022/05/18 10:28:24;;;;;;;5.32;2.58;;;26.30;97.10;;;;;;5019503;28;20033;-77
2022/05/18 10:31:05;;;;;;;5.90;2.40;;;26.40;96.30;;;;;;5030761;28;20044;-76
2022/05/18 10:33:36;;;;;;;7.70;2.55;;;26.40;97.30;;;;;;5035225;28;20029;-77
2022/05/18 10:36:15;;;;;;;7.43;2.10;;;26.50;96.10;;;;;;5033827;28;20029;-76
2022/05/18 10:38:54;;;;;;;3.53;1.80;;;26.60;94.60;;;;;;5029061;28;20037;-76
2022/05/18 10:41:26;;;;;;;4.97;1.98;;;26.60;94.90;;;;;;5032797;28;20086;-76
2022/05/18 10:43:54;;;;;;;6.88;1.95;;;26.70;94.40;;;;;;5035078;28;20036;-77
2022/05/18 10:46:37;;;;;;;2.75;1.92;;;26.70;93.10;;;;;;5036881;28;20420;-76
2022/05/18 10:49:06;;;;;;;;;;;26.70;92.20;;;;;;5031883;28;21717;-76
2022/05/18 10:51:37;;;;;;;5.75;2.20;;;26.80;92.80;;;;;;5033980;28;19990;-76
2022/05/18 10:54:24;;;;;;;4.05;2.10;;;26.90;93.40;;;;;;5031480;28;21671;-77
2022/05/18 10:56:52;;;;;;;3.88;2.08;;;27.00;91.10;;;;;;5036830;28;20437;-79
2022/05/18 10:59:35;;;;;;;6.82;1.90;;;27.10;90.70;;;;;;5031308;28;20013;-78
2022/05/18 11:02:03;;;;;;;6.07;1.95;;;27.10;91.00;;;;;;5029192;28;20033;-80
2022/05/18 11:04:50;;;;;;;6.15;1.90;;;27.20;90.20;;;;;;5033924;28;20440;-78
2022/05/18 11:07:21;;;;;;;2.70;1.80;;;27.20;85.70;;;;;;5031691;28;20038;-77
2022/05/18 11:09:47;;;;;;;5.97;2.15;;;27.20;88.50;;;;;;5030606;28;20473;-77
2022/05/18 11:12:43;;;;;;;2.88;1.98;;;27.30;88.50;;;;;;5031887;28;20024;-77
2022/05/18 11:15:47;;;;;;;3.50;2.00;;;27.30;87.10;;;;;;5032084;28;20035;-77
2022/05/18 11:18:28;;;;;;;4.55;1.70;;;27.30;85.80;;;;;;5033015;28;20471;-77
2022/05/18 11:21:20;;;;;;;8.05;1.90;;;27.30;83.20;;;;;;5033834;28;20370;-77
2022/05/18 11:24:08;;;;;;;3.42;2.15;;;27.50;85.60;;;;;;5033055;28;20029;-77
2022/05/18 11:27:05;;;;;;;3.50;1.50;;;27.70;86.90;;;;;;5033627;28;20063;-77
2022/05/18 11:29:45;;;;;;;3.50;1.88;;;27.80;81.10;;;;;;5016531;28;20064;-77
2022/05/18 11:32:17;;;;;;;3.00;1.75;;;27.80;81.20;;;;;;5014885;28;20042;-77
2022/05/18 11:35:20;;;;;;;4.53;1.85;;;27.90;82.20;;;;;;5015357;28;20483;-77
2022/05/18 11:38:14;;;;;;;5.25;1.92;;;28.00;82.20;;;;;;5012726;28;20040;-77
2022/05/18 11:40:50;;;;;;;3.50;1.60;;;28.00;81.30;;;;;;5006611;28;20037;-74
2022/05/18 11:43:43;;;;;;;3.08;1.70;;;27.90;78.10;;;;;;5008109;28;20504;-75
2022/05/18 11:46:24;;;;;;;4.80;1.90;;;28.10;80.60;;;;;;5011888;28;20132;-75
2022/05/18 11:49:23;;;;;;;4.43;1.75;;;28.20;79.70;;;;;;5009159;28;20029;-74
2022/05/18 11:52:14;;;;;;;3.45;1.80;;;28.30;78.80;;;;;;5009223;28;20075;-75
2022/05/18 11:55:00;;;;;;;2.13;1.58;;;28.40;77.80;;;;;;5007789;28;20037;-75
2022/05/18 11:57:38;;;;;;;3.97;1.70;;;28.50;76.60;;;;;;5011030;28;20090;-75
2022/05/18 12:00:44;;;;;;;5.72;1.98;;;28.50;76.20;;;;;;4998786;28;20683;-75
2022/05/18 12:03:20;;;;;;;4.60;1.67;;;28.60;75.00;;;;;;5008258;28;20034;-75
2022/05/18 12:06:10;;;;;;;3.20;1.67;;;28.70;74.30;;;;;;5009798;28;20103;-75
2022/05/18 12:08:56;;;;;;;4.90;1.70;;;28.70;72.40;;;;;;5009148;28;20123;-75
2022/05/18 12:11:44;;;;;;;2.78;1.80;;;28.60;75.20;;;;;;5011623;28;20152;-75
2022/05/18 12:14:25;;;;;;;3.03;1.63;;;28.60;74.20;;;;;;5012727;28;20529;-75
2022/05/18 12:17:12;;;;;;;3.72;1.40;;;28.70;71.90;;;;;;5013809;28;20114;-75
2022/05/18 12:19:56;;;;;;;2.22;1.30;;;28.80;70.70;;;;;;5010476;28;20070;-75
2022/05/18 12:22:34;;;;;;;8.25;1.83;;;29.00;70.00;;;;;;5016178;28;20037;-75
2022/05/18 12:25:00;;;;;;;4.32;1.63;;;29.00;70.00;;;;;;5015464;28;20598;-75
2022/05/18 12:27:27;;;;;;;3.42;1.40;;;29.10;70.60;;;;;;5014225;28;20037;-75
2022/05/18 12:29:57;;;;;;;2.65;1.63;;;29.20;70.20;;;;;;5012969;28;20033;-75
2022/05/18 12:32:23;;;;;;;5.97;1.58;;;29.30;70.00;;;;;;5013024;28;20050;-75
2022/05/18 12:35:24;;;;;;;4.35;1.83;;;29.30;69.50;;;;;;5017383;28;20048;-75
2022/05/18 12:38:08;;;;;;;2.20;1.45;;;29.30;70.30;;;;;;5008611;28;20179;-75
2022/05/18 12:40:48;;;;;;;3.78;1.50;;;29.40;69.10;;;;;;5009148;28;20393;-75
2022/05/18 12:43:32;;;;;;;3.75;1.60;;;29.40;68.00;;;;;;5012841;28;20028;-74
2022/05/18 12:46:02;;;;;;;2.33;1.60;;;29.40;67.30;;;;;;5014310;28;20038;-74
2022/05/18 12:48:43;;;;;;;2.63;1.58;;;29.40;68.00;;;;;;5010034;28;20395;-75
2022/05/18 12:51:27;;;;;;;3.83;1.65;;;29.40;69.20;;;;;;5016256;28;20044;-74
2022/05/18 12:54:10;;;;;;;1.98;1.50;;;29.50;68.40;;;;;;5011066;28;20291;-74
2022/05/18 12:56:35;;;;;;;3.28;1.52;;;29.50;67.40;;;;;;5011636;28;20036;-74
2022/05/18 12:59:20;;;;;;;2.08;1.40;;;29.60;68.60;;;;;;5012729;28;20029;-75
2022/05/18 13:01:52;;;;;;;2.58;1.70;;;29.70;67.30;;;;;;5011604;28;20635;-74
2022/05/18 13:04:17;;;;;;;3.50;1.50;;;29.80;67.40;;;;;;5017201;28;20036;-75
2022/05/18 13:06:55;;;;;;;3.47;1.63;;;29.90;65.30;;;;;;5011172;28;20018;-75
2022/05/18 13:09:33;;;;;;;9.05;1.60;;;29.90;66.00;;;;;;5009718;28;20029;-75
2022/05/18 13:12:03;;;;;;;6.85;1.75;;;29.80;65.50;;;;;;5013762;28;20403;-75
2022/05/18 13:14:34;;;;;;;5.63;1.85;;;29.70;66.40;;;;;;5010849;28;20020;-72
2022/05/18 13:17:00;;;;;;;2.17;1.33;;;29.70;65.90;;;;;;5014153;28;20018;-72
2022/05/18 13:19:28;;;;;;;4.10;1.70;;;29.70;66.40;;;;;;5010531;28;20037;-72
2022/05/18 13:22:06;;;;;;;6.45;1.80;;;29.80;63.90;;;;;;5011755;28;20034;-74
2022/05/18 13:24:39;;;;;;;1.48;1.30;;;29.80;64.20;;;;;;5015652;28;20064;-74
2022/05/18 13:27:25;;;;;;;3.10;1.30;;;29.90;66.60;;;;;;5014883;28;20037;-75
2022/05/18 13:29:55;;;;;;;5.05;1.52;;;30.00;66.10;;;;;;5009771;28;20437;-75
2022/05/18 13:32:23;;;;;;;2.90;1.50;;;30.10;63.30;;;;;;5010848;28;20038;-75
2022/05/18 13:35:01;;;;;;;3.28;1.38;;;30.10;62.70;;;;;;5015809;28;20022;-75
2022/05/18 13:37:28;;;;;;;2.78;1.35;;;30.20;63.60;;;;;;5010739;28;20111;-75
2022/05/18 13:39:55;;;;;;;2.42;1.23;;;30.30;63.90;;;;;;5008745;28;20064;-75
2022/05/18 13:42:27;;;;;;;4.43;1.70;;;30.30;65.80;;;;;;5013556;28;20029;-74
2022/05/18 13:45:09;;;;;;;4.15;1.50;;;30.30;62.90;;;;;;5013966;28;20032;-75
2022/05/18 13:47:47;;;;;;;3.67;1.60;;;30.20;62.30;;;;;;5012262;28;20033;-74
2022/05/18 13:50:21;;;;;;;3.90;1.60;;;30.30;62.80;;;;;;5012706;28;20163;-74
2022/05/18 13:52:47;;;;;;;1.95;1.30;;;30.30;62.70;;;;;;5015632;28;20026;-74
2022/05/18 13:55:18;;;;;;;3.50;1.67;;;30.30;63.30;;;;;;5011376;28;20092;-74
2022/05/18 13:58:07;;;;;;;2.28;1.35;;;30.30;62.70;;;;;;5011104;28;20521;-74
2022/05/18 14:00:49;;;;;;;4.20;1.90;;;30.30;62.90;;;;;;5011515;28;20060;-74
2022/05/18 14:03:18;;;;;;;2.45;1.60;;;30.20;62.60;;;;;;5015567;28;20456;-74
2022/05/18 14:05:44;;;;;;;1.88;1.50;;;30.20;62.50;;;;;;5014485;28;20245;-74
2022/05/18 14:08:26;;;;;;;3.90;1.65;;;30.10;61.90;;;;;;5011188;28;20089;-74
2022/05/18 14:10:54;;;;;;;3.60;1.60;;;30.00;61.10;;;;;;5011555;28;20616;-75
2022/05/18 14:13:21;;;;;;;5.15;1.50;;;29.90;61.30;;;;;;5013785;28;20049;-77
2022/05/18 14:15:50;;;;;;;3.85;1.77;;;30.00;62.70;;;;;;5015348;28;20251;-77
2022/05/18 14:18:19;;;;;;;3.05;1.70;;;30.00;62.40;;;;;;5010231;28;20038;-77
2022/05/18 14:20:51;;;;;;;4.18;1.80;;;29.90;61.30;;;;;;5012261;28;20033;-77
2022/05/18 14:23:26;;;;;;;1.67;1.50;;;29.80;62.60;;;;;;5011189;28;20036;-77
2022/05/18 14:25:54;;;;;;;6.40;1.73;;;29.80;62.90;;;;;;5013259;28;20625;-77
2022/05/18 14:28:31;;;;;;;2.65;1.50;;;29.70;62.70;;;;;;5005644;28;20160;-77
2022/05/18 14:31:00;;;;;;;4.80;1.75;;;29.60;63.70;;;;;;5009813;28;20132;-76
2022/05/18 14:33:35;;;;;;;3.05;1.50;;;29.60;62.60;;;;;;5011402;28;20521;-77
2022/05/18 14:36:07;;;;;;;4.97;1.83;;;29.50;61.80;;;;;;5013868;28;20373;-77
2022/05/18 14:38:37;;;;;;;4.32;1.55;;;29.60;62.70;;;;;;5010146;28;20033;-76
2022/05/18 14:41:07;;;;;;;4.45;1.60;;;29.60;63.10;;;;;;5012147;28;20041;-77
2022/05/18 14:43:33;;;;;;;4.88;1.70;;;29.60;63.50;;;;;;5013562;28;20334;-77
2022/05/18 14:46:25;;;;;;;6.40;1.58;;;29.60;62.50;;;;;;5009714;28;20148;-77
2022/05/18 14:49:11;;;;;;;2.97;1.67;;;29.60;63.30;;;;;;5007549;28;20485;-77
2022/05/18 14:51:40;;;;;;;2.53;1.58;;;29.50;63.60;;;;;;5006693;28;20041;-77
2022/05/18 14:54:15;;;;;;;6.45;1.75;;;29.40;62.80;;;;;;5012744;28;20021;-77
2022/05/18 14:56:46;;;;;;;4.05;1.50;;;29.50;63.80;;;;;;5012075;28;20037;-77
2022/05/18 14:59:15;;;;;;;5.22;1.90;;;29.50;62.40;;;;;;5008394;28;20188;-77
2022/05/18 15:01:49;;;;;;;5.05;1.60;;;29.50;62.80;;;;;;5010050;28;20045;-77
2022/05/18 15:04:25;;;;;;;2.95;1.73;;;29.40;62.50;;;;;;5010057;28;20285;-77
2022/05/18 15:06:55;;;;;;;4.18;1.52;;;29.50;62.10;;;;;;5006535;28;20505;-76
2022/05/18 15:09:32;;;;;;;2.03;1.60;;;29.40;61.40;;;;;;5009930;28;20403;-77
2022/05/18 15:12:12;;;;;;;6.45;1.80;;;29.30;62.80;;;;;;5008851;28;20473;-77
2022/05/18 15:15:25;;;;;;;4.68;1.85;;;29.30;62.90;;;;;;5011962;28;20045;-77